createdAt,value
2023-01-19T00:00:39.731Z,0.40
2023-01-19T00:04:02.728Z,0.43
2023-01-19T00:07:24.829Z,0.20
2023-01-19T00:10:48.213Z,0.47
2023-01-19T00:14:10.079Z,0.50
2023-01-19T00:17:32.220Z,0.60
2023-01-19T00:20:55.710Z,0.15
2023-01-19T00:24:17.741Z,0.35
2023-01-19T00:27:39.557Z,0.20
2023-01-19T00:31:01.507Z,0.28
2023-01-19T00:34:23.124Z,0.10
2023-01-19T00:37:46.911Z,0.08
2023-01-19T00:41:08.663Z,0.08
2023-01-19T00:44:30.514Z,0.10
2023-01-19T00:47:54.912Z,0.10
2023-01-19T00:51:17.095Z,0.20
2023-01-19T00:54:40.652Z,1.10
2023-01-19T00:58:03.853Z,0.10
2023-01-19T01:01:45.021Z,0.10
2023-01-19T01:05:08.824Z,0.10
2023-01-19T01:08:31.119Z,0.10
2023-01-19T01:11:54.666Z,0.10
2023-01-19T01:15:17.898Z,0.10
2023-01-19T01:18:39.536Z,0.03
2023-01-19T01:22:01.455Z,0.00
2023-01-19T01:25:24.792Z,0.03
2023-01-19T01:28:47.947Z,0.10
2023-01-19T01:32:10.194Z,0.00
2023-01-19T01:35:32.513Z,0.00
2023-01-19T01:38:54.415Z,0.20
2023-01-19T01:42:19.652Z,0.45
2023-01-19T01:45:43.807Z,0.10
2023-01-19T01:49:09.142Z,0.10
2023-01-19T01:52:35.571Z,0.00
2023-01-19T01:55:57.799Z,0.10
2023-01-19T01:59:26.953Z,0.00
2023-01-19T02:02:55.251Z,0.13
2023-01-19T02:06:17.564Z,0.00
2023-01-19T02:09:57.014Z,0.00
2023-01-19T02:13:20.564Z,0.00
2023-01-19T02:16:42.423Z,0.00
2023-01-19T02:20:06.405Z,0.00
2023-01-19T02:23:39.781Z,0.10
2023-01-19T02:27:02.187Z,0.10
2023-01-19T02:30:24.467Z,0.00
2023-01-19T02:33:46.718Z,0.00
2023-01-19T02:37:12.519Z,0.00
2023-01-19T02:40:38.684Z,0.00
2023-01-19T02:44:02.237Z,0.03
2023-01-19T02:47:24.349Z,0.00
2023-01-19T02:50:49.984Z,0.00
2023-01-19T02:54:29.354Z,0.10
2023-01-19T02:58:01.918Z,0.05
2023-01-19T03:01:34.518Z,0.10
2023-01-19T03:05:06.259Z,0.00
2023-01-19T03:08:48.754Z,0.10
2023-01-19T03:12:16.151Z,0.10
2023-01-19T03:15:48.250Z,0.10
2023-01-19T03:19:14.182Z,0.00
2023-01-19T03:22:36.548Z,0.60
2023-01-19T03:26:00.905Z,1.05
2023-01-19T03:29:25.776Z,0.90
2023-01-19T03:32:53.420Z,0.70
2023-01-19T03:36:19.932Z,1.40
2023-01-19T03:39:41.734Z,1.00
2023-01-19T03:43:04.912Z,0.43
2023-01-19T03:46:27.610Z,0.10
2023-01-19T03:49:53.496Z,0.15
2023-01-19T03:53:17.931Z,0.00
2023-01-19T03:56:40.066Z,0.00
2023-01-19T04:00:01.834Z,0.00
2023-01-19T04:03:23.569Z,0.47
2023-01-19T04:06:46.638Z,1.13
2023-01-19T04:10:12.837Z,2.10
2023-01-19T04:13:34.997Z,0.80
2023-01-19T04:16:59.672Z,0.25
2023-01-19T04:20:22.606Z,0.73
2023-01-19T04:23:46.172Z,0.60
2023-01-19T04:27:07.939Z,1.05
2023-01-19T04:30:29.716Z,1.20
2023-01-19T04:33:51.591Z,0.40
2023-01-19T04:37:13.475Z,0.40
2023-01-19T04:40:36.919Z,0.40
2023-01-19T04:43:58.918Z,0.70
2023-01-19T04:47:20.619Z,1.00
2023-01-19T04:50:42.773Z,0.52
2023-01-19T04:54:05.020Z,0.60
2023-01-19T04:57:28.122Z,0.80
2023-01-19T05:00:51.336Z,1.73
2023-01-19T05:04:13.182Z,0.90
2023-01-19T05:07:35.353Z,0.60
2023-01-19T05:10:58.074Z,0.60
2023-01-19T05:14:21.541Z,1.42
2023-01-19T05:17:43.582Z,0.50
2023-01-19T05:21:06.183Z,0.60
2023-01-19T05:24:27.934Z,0.50
2023-01-19T05:27:49.973Z,0.30
2023-01-19T05:31:13.801Z,0.43
2023-01-19T05:34:35.910Z,1.50
2023-01-19T05:37:57.686Z,0.43
2023-01-19T05:41:19.696Z,0.60
2023-01-19T05:44:41.750Z,0.50
2023-01-19T05:48:05.017Z,0.20
2023-01-19T05:51:26.776Z,0.30
2023-01-19T05:54:48.520Z,0.30
2023-01-19T05:58:10.412Z,0.10
2023-01-19T06:01:33.342Z,1.23
2023-01-19T06:04:56.870Z,0.40
2023-01-19T06:08:18.932Z,0.10
2023-01-19T06:11:40.659Z,0.75
2023-01-19T06:15:02.660Z,0.52
2023-01-19T06:18:24.480Z,0.45
2023-01-19T06:21:52.446Z,0.22
2023-01-19T06:25:14.647Z,0.00
2023-01-19T06:28:36.472Z,0.15
2023-01-19T06:31:58.363Z,0.47
2023-01-19T06:35:20.260Z,0.50
2023-01-19T06:38:43.855Z,0.20
2023-01-19T06:42:06.003Z,0.20
2023-01-19T06:45:27.908Z,0.30
2023-01-19T06:48:49.646Z,0.50
2023-01-19T06:52:14.242Z,0.20
2023-01-19T06:55:37.462Z,0.30
2023-01-19T06:58:59.658Z,0.30
2023-01-19T07:02:26.947Z,0.50
2023-01-19T07:05:53.027Z,0.50
2023-01-19T07:09:17.151Z,0.60
2023-01-19T07:12:40.563Z,0.88
2023-01-19T07:16:07.486Z,0.82
2023-01-19T07:19:30.232Z,0.70
2023-01-19T07:22:57.346Z,0.50
2023-01-19T07:26:21.558Z,0.80
2023-01-19T07:29:45.046Z,1.55
2023-01-19T07:33:07.200Z,0.80
2023-01-19T07:36:28.893Z,1.40
2023-01-19T07:39:50.673Z,1.98
2023-01-19T07:43:12.640Z,1.25
2023-01-19T07:46:38.946Z,1.73
2023-01-19T07:50:00.830Z,2.40
2023-01-19T07:53:22.642Z,1.27
2023-01-19T07:56:44.673Z,1.05
2023-01-19T08:00:08.965Z,0.60
2023-01-19T08:03:32.327Z,1.13
2023-01-19T08:06:54.572Z,0.80
2023-01-19T08:10:17.372Z,0.60
2023-01-19T08:13:39.020Z,1.40
2023-01-19T08:17:01.241Z,1.30
2023-01-19T08:20:24.572Z,1.13
2023-01-19T08:23:52.790Z,1.20
2023-01-19T08:27:14.817Z,1.90
2023-01-19T08:30:36.848Z,3.97
2023-01-19T08:33:58.799Z,4.45
2023-01-19T08:37:21.936Z,5.07
2023-01-19T08:40:44.426Z,5.78
2023-01-19T08:44:06.607Z,6.00
2023-01-19T08:47:28.588Z,7.55
2023-01-19T08:50:52.249Z,7.80
2023-01-19T08:54:18.601Z,8.85
2023-01-19T08:57:41.154Z,6.97
2023-01-19T09:01:04.106Z,9.18
2023-01-19T09:04:26.195Z,8.30
2023-01-19T09:07:48.401Z,7.75
2023-01-19T09:11:13.866Z,7.50
2023-01-19T09:14:35.851Z,6.55
2023-01-19T09:17:58.561Z,6.88
2023-01-19T09:21:20.465Z,7.18
2023-01-19T09:24:42.296Z,7.28
2023-01-19T09:28:05.915Z,6.82
2023-01-19T09:31:27.689Z,7.93
2023-01-19T09:34:49.601Z,8.10
2023-01-19T09:38:11.771Z,6.68
2023-01-19T09:41:36.297Z,6.15
2023-01-19T09:44:59.983Z,7.15
2023-01-19T09:48:30.457Z,7.03
2023-01-19T09:51:52.904Z,6.88
2023-01-19T09:55:22.299Z,6.32
2023-01-19T09:58:44.130Z,6.43
2023-01-19T10:02:20.998Z,6.10
2023-01-19T10:05:48.199Z,5.97
2023-01-19T10:09:16.023Z,5.85
2023-01-19T10:12:46.324Z,7.07
2023-01-19T10:16:23.026Z,8.23
2023-01-19T10:19:51.207Z,6.97
2023-01-19T10:23:30.271Z,6.00
2023-01-19T10:26:55.112Z,6.75
2023-01-19T10:30:26.651Z,6.40
2023-01-19T10:33:49.410Z,6.47
2023-01-19T10:37:24.435Z,4.65
2023-01-19T10:40:50.837Z,5.70
2023-01-19T10:44:12.955Z,5.70
2023-01-19T10:47:37.342Z,4.78
2023-01-19T10:51:04.405Z,6.93
2023-01-19T10:54:28.859Z,6.05
2023-01-19T10:57:53.672Z,7.70
2023-01-19T11:01:19.173Z,5.35
2023-01-19T11:04:42.229Z,9.32
2023-01-19T11:08:24.215Z,5.70
2023-01-19T11:11:50.460Z,5.63
2023-01-19T11:15:17.674Z,5.15
2023-01-19T11:18:41.908Z,5.60
2023-01-19T11:22:21.749Z,5.88
2023-01-19T11:25:47.466Z,4.78
2023-01-19T11:29:18.513Z,6.88
2023-01-19T11:32:40.476Z,5.47
2023-01-19T11:36:09.172Z,5.53
2023-01-19T11:39:31.986Z,5.10
2023-01-19T11:42:53.865Z,7.70
2023-01-19T11:46:18.879Z,6.82
2023-01-19T11:49:46.717Z,6.55
2023-01-19T11:53:17.502Z,4.90
2023-01-19T11:56:39.491Z,4.63
2023-01-19T12:00:05.300Z,4.93
2023-01-19T12:03:31.832Z,6.32
2023-01-19T12:06:56.562Z,3.72
2023-01-19T12:10:26.131Z,4.50
2023-01-19T12:13:48.352Z,4.63
2023-01-19T12:17:18.081Z,4.30
2023-01-19T12:20:45.142Z,4.00
2023-01-19T12:24:16.465Z,3.38
2023-01-19T12:27:41.946Z,3.28
2023-01-19T12:31:05.175Z,3.80
2023-01-19T12:34:40.182Z,3.83
2023-01-19T12:38:36.257Z,3.97
2023-01-19T12:42:16.067Z,5.20
2023-01-19T12:45:40.094Z,5.15
2023-01-19T12:49:07.089Z,13.13
2023-01-19T12:52:35.386Z,6.25
2023-01-19T12:56:08.798Z,5.80
2023-01-19T12:59:32.466Z,4.95
2023-01-19T13:02:55.961Z,5.72
2023-01-19T13:06:18.005Z,4.35
2023-01-19T13:09:42.774Z,4.60
2023-01-19T13:13:18.797Z,4.20
2023-01-19T13:17:19.894Z,5.55
2023-01-19T13:20:48.208Z,6.47
2023-01-19T13:24:11.777Z,7.85
2023-01-19T13:27:36.230Z,10.93
2023-01-19T13:31:05.245Z,9.60
2023-01-19T13:34:28.625Z,5.20
2023-01-19T13:37:51.572Z,4.30
2023-01-19T13:41:17.434Z,4.05
2023-01-19T13:44:43.745Z,5.35
2023-01-19T13:48:15.974Z,4.65
2023-01-19T13:51:37.985Z,4.55
2023-01-19T13:55:03.361Z,5.32
2023-01-19T13:58:26.328Z,4.35
2023-01-19T14:01:51.076Z,5.72
2023-01-19T14:05:22.523Z,4.80
2023-01-19T14:08:44.556Z,4.53
2023-01-19T14:12:14.190Z,5.43
2023-01-19T14:19:02.567Z,12.27
2023-01-19T14:22:45.208Z,11.35
2023-01-19T14:26:07.443Z,13.77
2023-01-19T14:29:32.919Z,14.52
2023-01-19T14:32:55.689Z,11.40
2023-01-19T14:36:30.029Z,22.35
2023-01-19T14:39:57.477Z,12.50
2023-01-19T14:43:22.245Z,7.32
2023-01-19T14:46:47.967Z,35.85
2023-01-19T14:50:23.332Z,12.15
2023-01-19T14:53:50.635Z,7.10
2023-01-19T14:57:15.056Z,6.70
2023-01-19T15:00:37.126Z,4.55
2023-01-19T15:03:59.144Z,4.20
2023-01-19T15:07:24.211Z,4.88
2023-01-19T15:10:47.197Z,4.70
2023-01-19T15:14:14.917Z,5.85
2023-01-19T15:17:37.172Z,10.60
2023-01-19T15:21:02.963Z,7.95
2023-01-19T15:24:24.642Z,6.25
2023-01-19T15:27:47.811Z,5.85
2023-01-19T15:31:14.906Z,6.00
2023-01-19T15:34:36.991Z,4.35
2023-01-19T15:37:59.248Z,5.38
2023-01-19T15:41:25.037Z,5.50
2023-01-19T15:44:47.321Z,9.02
2023-01-19T15:48:12.684Z,9.98
2023-01-19T15:51:34.482Z,28.52
2023-01-19T15:54:56.609Z,30.55
2023-01-19T15:58:20.739Z,16.63
2023-01-19T16:01:42.851Z,24.90
2023-01-19T16:05:06.987Z,25.88
2023-01-19T16:08:30.014Z,12.82
2023-01-19T16:11:51.778Z,15.20
2023-01-19T16:15:13.754Z,16.25
2023-01-19T16:18:36.036Z,13.80
2023-01-19T16:21:59.229Z,13.75
2023-01-19T16:25:23.214Z,10.77
2023-01-19T16:28:45.175Z,9.82
2023-01-19T16:32:07.307Z,7.90
2023-01-19T16:35:29.339Z,6.10
2023-01-19T16:38:53.114Z,5.75
2023-01-19T16:42:16.660Z,8.35
2023-01-19T16:45:58.884Z,6.68
2023-01-19T16:49:22.499Z,10.38
2023-01-19T16:52:44.837Z,9.90
2023-01-19T16:56:09.565Z,11.68
2023-01-19T16:59:31.737Z,19.52
2023-01-19T17:02:53.584Z,22.73
2023-01-19T17:06:18.214Z,17.65
2023-01-19T17:09:40.431Z,17.02
2023-01-19T17:13:04.163Z,12.57
2023-01-19T17:16:26.802Z,11.45
2023-01-19T17:19:48.673Z,11.27
2023-01-19T17:23:10.532Z,12.85
2023-01-19T17:26:32.607Z,11.63
2023-01-19T17:29:55.972Z,11.43
2023-01-19T17:33:17.522Z,17.55
2023-01-19T17:36:41.123Z,9.40
2023-01-19T17:40:03.275Z,9.80
2023-01-19T17:43:24.997Z,9.85
2023-01-19T17:46:48.675Z,32.60
2023-01-19T17:50:12.093Z,49.30
2023-01-19T17:53:34.563Z,47.75
2023-01-19T17:56:56.551Z,10.07
2023-01-19T18:00:19.637Z,13.48
2023-01-19T18:03:43.129Z,17.95
2023-01-19T18:07:05.160Z,14.98
2023-01-19T18:10:27.089Z,10.60
2023-01-19T18:13:49.996Z,8.60
2023-01-19T18:17:11.786Z,9.32
2023-01-19T18:20:37.718Z,9.35
2023-01-19T18:24:02.407Z,7.30
2023-01-19T18:27:24.421Z,5.78
2023-01-19T18:30:46.231Z,5.05
2023-01-19T18:34:08.117Z,19.73
2023-01-19T18:37:31.983Z,9.30
2023-01-19T18:41:02.902Z,6.88
2023-01-19T18:44:24.832Z,6.57
2023-01-19T18:47:47.128Z,8.00
2023-01-19T18:51:10.735Z,10.57
2023-01-19T18:54:34.285Z,7.20
2023-01-19T18:57:56.469Z,6.50
2023-01-19T19:01:20.919Z,6.13
2023-01-19T19:04:43.222Z,6.20
2023-01-19T19:08:05.971Z,5.78
2023-01-19T19:11:29.740Z,11.85
2023-01-19T19:14:51.909Z,10.00
2023-01-19T19:18:15.264Z,7.97
2023-01-19T19:21:37.232Z,6.63
2023-01-19T19:24:59.150Z,9.65
2023-01-19T19:28:22.628Z,8.82
2023-01-19T19:31:46.392Z,7.10
2023-01-19T19:35:08.825Z,6.00
2023-01-19T19:38:30.757Z,9.13
2023-01-19T19:41:52.507Z,7.82
2023-01-19T19:45:15.921Z,5.75
2023-01-19T19:48:39.381Z,4.90
2023-01-19T19:52:01.432Z,5.38
2023-01-19T19:55:25.612Z,7.60
2023-01-19T19:58:47.394Z,7.57
2023-01-19T20:02:13.008Z,6.78
2023-01-19T20:05:37.185Z,5.38
2023-01-19T20:08:59.245Z,4.70
2023-01-19T20:12:21.246Z,5.20
2023-01-19T20:15:43.242Z,5.88
2023-01-19T20:19:06.970Z,6.30
2023-01-19T20:22:28.866Z,5.07
2023-01-19T20:25:50.828Z,5.55
2023-01-19T20:29:12.980Z,7.10
2023-01-19T20:32:35.137Z,5.57
2023-01-19T20:35:58.867Z,5.70
2023-01-19T20:39:22.606Z,4.78
2023-01-19T20:42:44.613Z,5.93
2023-01-19T20:46:06.855Z,4.82
2023-01-19T20:49:29.644Z,5.30
2023-01-19T20:52:52.974Z,5.55
2023-01-19T20:56:16.186Z,5.88
2023-01-19T20:59:39.053Z,5.85
2023-01-19T21:03:01.268Z,5.55
2023-01-19T21:06:23.668Z,4.88
2023-01-19T21:09:47.592Z,5.10
2023-01-19T21:13:09.777Z,4.65
2023-01-19T21:16:34.218Z,4.70
2023-01-19T21:19:56.091Z,5.15
2023-01-19T21:23:19.267Z,5.15
2023-01-19T21:26:42.949Z,6.07
2023-01-19T21:30:05.898Z,5.97
2023-01-19T21:33:28.013Z,4.80
2023-01-19T21:36:50.222Z,7.18
2023-01-19T21:40:13.711Z,7.30
2023-01-19T21:43:39.785Z,7.15
2023-01-19T21:47:02.511Z,6.68
2023-01-19T21:50:24.365Z,9.07
2023-01-19T21:53:46.993Z,9.63
2023-01-19T21:57:24.625Z,9.02
2023-01-19T22:00:48.188Z,11.27
2023-01-19T22:04:10.394Z,10.13
2023-01-19T22:07:32.307Z,11.43
2023-01-19T22:10:54.306Z,13.40
2023-01-19T22:14:16.205Z,10.30
2023-01-19T22:17:39.256Z,10.70
2023-01-19T22:21:09.229Z,11.25
2023-01-19T22:24:30.949Z,11.85
2023-01-19T22:27:52.713Z,12.23
2023-01-19T22:31:16.988Z,13.68
2023-01-19T22:34:40.553Z,9.07
2023-01-19T22:38:02.707Z,8.70
2023-01-19T22:41:26.893Z,9.32
2023-01-19T22:44:48.928Z,8.48
2023-01-19T22:48:10.919Z,6.40
2023-01-19T22:51:35.032Z,8.35
2023-01-19T22:54:58.418Z,8.38
2023-01-19T22:58:21.680Z,7.80
2023-01-19T23:01:45.188Z,8.43
2023-01-19T23:05:08.064Z,8.85
2023-01-19T23:08:31.477Z,8.20
2023-01-19T23:11:53.631Z,7.78
2023-01-19T23:15:15.522Z,7.22
2023-01-19T23:18:37.326Z,5.97
2023-01-19T23:21:59.234Z,5.22
2023-01-19T23:25:22.497Z,5.53
2023-01-19T23:28:45.051Z,5.85
2023-01-19T23:32:07.125Z,5.93
2023-01-19T23:35:29.282Z,6.35
2023-01-19T23:38:52.725Z,6.20
2023-01-19T23:42:16.155Z,6.57
2023-01-19T23:45:38.305Z,6.20
2023-01-19T23:49:00.197Z,6.07
2023-01-19T23:52:21.981Z,6.28
2023-01-19T23:55:43.588Z,5.85
2023-01-19T23:59:08.354Z,5.53
